createdAt,value
2019-05-19T00:00:24.462Z,0.00
2019-05-19T00:01:24.414Z,0.00
2019-05-19T00:02:24.314Z,0.00
2019-05-19T00:03:24.236Z,0.00
2019-05-19T00:04:24.159Z,0.00
2019-05-19T00:05:24.086Z,0.00
2019-05-19T00:06:24.010Z,0.00
2019-05-19T00:07:23.935Z,0.00
2019-05-19T00:08:23.859Z,0.00
2019-05-19T00:09:23.784Z,0.00
2019-05-19T00:10:23.834Z,0.00
2019-05-19T00:11:23.633Z,0.00
2019-05-19T00:12:23.562Z,0.00
2019-05-19T00:13:23.482Z,0.00
2019-05-19T00:14:23.407Z,0.00
2019-05-19T00:15:23.331Z,0.00
2019-05-19T00:16:23.256Z,0.00
2019-05-19T00:17:23.182Z,0.00
2019-05-19T00:18:23.106Z,0.00
2019-05-19T00:19:26.605Z,0.00
2019-05-19T00:20:22.981Z,0.00
2019-05-19T00:21:22.879Z,0.00
2019-05-19T00:22:22.805Z,0.00
2019-05-19T00:23:22.731Z,0.00
2019-05-19T00:24:22.655Z,0.00
2019-05-19T00:25:22.583Z,0.00
2019-05-19T00:26:22.504Z,0.00
2019-05-19T00:27:22.458Z,0.00
2019-05-19T00:28:22.355Z,0.00
2019-05-19T00:29:22.277Z,0.00
2019-05-19T00:30:22.244Z,0.00
2019-05-19T00:31:22.131Z,0.00
2019-05-19T00:32:22.053Z,0.00
2019-05-19T00:33:21.978Z,0.00
2019-05-19T00:34:21.901Z,0.00
2019-05-19T00:35:21.858Z,0.00
2019-05-19T00:36:21.749Z,0.00
2019-05-19T00:37:21.674Z,0.00
2019-05-19T00:38:21.626Z,0.00
2019-05-19T00:39:21.531Z,0.00
2019-05-19T00:40:21.548Z,0.00
2019-05-19T00:41:21.381Z,0.00
2019-05-19T00:42:21.302Z,0.00
2019-05-19T00:43:21.226Z,0.00
2019-05-19T00:44:21.147Z,0.00
2019-05-19T00:45:21.172Z,0.00
2019-05-19T00:46:20.996Z,0.00
2019-05-19T00:47:20.922Z,0.00
2019-05-19T00:48:20.847Z,0.00
2019-05-19T00:49:20.770Z,0.00
2019-05-19T00:50:20.695Z,0.00
2019-05-19T00:51:20.620Z,0.00
2019-05-19T00:52:20.546Z,0.00
2019-05-19T00:53:20.472Z,0.00
2019-05-19T00:54:20.393Z,0.00
2019-05-19T00:55:20.317Z,0.00
2019-05-19T00:56:20.241Z,0.00
2019-05-19T00:57:20.165Z,0.00
2019-05-19T00:58:20.090Z,0.00
2019-05-19T00:59:20.016Z,0.00
2019-05-19T01:00:19.939Z,0.00
2019-05-19T01:01:19.980Z,0.00
2019-05-19T01:02:19.792Z,0.00
2019-05-19T01:03:19.714Z,0.00
2019-05-19T01:04:19.637Z,0.00
2019-05-19T01:05:20.822Z,0.00
2019-05-19T01:06:19.487Z,0.00
2019-05-19T01:07:19.413Z,0.00
2019-05-19T01:08:19.338Z,0.00
2019-05-19T01:09:19.260Z,0.00
2019-05-19T01:10:19.184Z,0.00
2019-05-19T01:11:19.110Z,0.00
2019-05-19T01:12:19.034Z,0.00
2019-05-19T01:13:18.958Z,0.00
2019-05-19T01:14:18.887Z,0.00
2019-05-19T01:15:21.428Z,0.00
2019-05-19T01:17:11.227Z,0.00
2019-05-19T01:18:11.147Z,0.00
2019-05-19T01:19:11.070Z,0.00
2019-05-19T01:20:10.994Z,0.00
2019-05-19T01:21:10.920Z,0.00
2019-05-19T01:22:10.844Z,0.00
2019-05-19T01:23:10.769Z,0.00
2019-05-19T01:24:10.698Z,0.00
2019-05-19T01:25:10.622Z,0.00
2019-05-19T01:26:10.542Z,0.00
2019-05-19T01:27:10.801Z,0.00
2019-05-19T01:28:10.392Z,0.00
2019-05-19T01:29:10.315Z,0.00
2019-05-19T01:30:10.240Z,0.00
2019-05-19T01:31:10.164Z,0.00
2019-05-19T01:32:10.091Z,0.00
2019-05-19T01:33:10.011Z,0.00
2019-05-19T01:34:09.937Z,0.00
2019-05-19T01:35:09.863Z,0.00
2019-05-19T01:36:09.787Z,0.00
2019-05-19T01:37:09.709Z,0.00
2019-05-19T01:38:09.635Z,0.00
2019-05-19T01:39:09.584Z,0.00
2019-05-19T01:40:09.493Z,0.00
2019-05-19T01:41:09.426Z,0.00
2019-05-19T01:42:09.333Z,0.00
2019-05-19T01:43:09.256Z,0.00
2019-05-19T01:44:09.181Z,0.00
2019-05-19T01:45:09.110Z,0.00
2019-05-19T01:46:09.029Z,0.00
2019-05-19T01:47:08.956Z,0.00
2019-05-19T01:48:08.884Z,0.00
2019-05-19T01:49:08.802Z,0.00
2019-05-19T01:50:17.374Z,0.00
2019-05-19T01:51:08.652Z,0.00
2019-05-19T01:52:08.575Z,0.00
2019-05-19T01:53:08.498Z,0.00
2019-05-19T01:54:08.761Z,0.00
2019-05-19T01:55:08.347Z,0.00
2019-05-19T01:56:08.404Z,0.00
2019-05-19T01:57:08.211Z,0.00
2019-05-19T01:58:08.119Z,0.00
2019-05-19T01:59:08.045Z,0.00
2019-05-19T02:00:07.977Z,0.00
2019-05-19T02:01:07.893Z,0.00
2019-05-19T02:02:07.919Z,0.00
2019-05-19T02:03:07.740Z,0.00
2019-05-19T02:04:07.666Z,0.00
2019-05-19T02:05:07.590Z,0.00
2019-05-19T02:06:07.513Z,0.00
2019-05-19T02:07:07.456Z,0.00
2019-05-19T02:08:07.361Z,0.00
2019-05-19T02:09:07.285Z,0.00
2019-05-19T02:10:07.211Z,0.00
2019-05-19T02:11:07.149Z,0.00
2019-05-19T02:12:07.059Z,0.00
2019-05-19T02:13:06.982Z,0.00
2019-05-19T02:14:06.908Z,0.00
2019-05-19T02:15:06.832Z,0.00
2019-05-19T02:16:06.756Z,0.00
2019-05-19T02:17:06.705Z,0.00
2019-05-19T02:18:06.602Z,0.00
2019-05-19T02:19:06.531Z,0.00
2019-05-19T02:20:06.452Z,0.00
2019-05-19T02:21:06.377Z,0.00
2019-05-19T02:22:06.300Z,0.00
2019-05-19T02:23:06.224Z,0.00
2019-05-19T02:24:06.148Z,0.00
2019-05-19T02:25:06.079Z,0.00
2019-05-19T02:26:05.997Z,0.00
2019-05-19T02:27:05.919Z,0.00
2019-05-19T02:28:05.846Z,0.00
2019-05-19T02:29:05.769Z,0.00
2019-05-19T02:30:05.695Z,0.00
2019-05-19T02:31:05.618Z,0.00
2019-05-19T02:32:05.542Z,0.00
2019-05-19T02:33:05.465Z,0.00
2019-05-19T02:34:05.401Z,0.00
2019-05-19T02:35:05.316Z,0.00
2019-05-19T02:36:05.239Z,0.00
2019-05-19T02:37:05.168Z,0.00
2019-05-19T02:38:05.088Z,0.00
2019-05-19T02:39:05.013Z,0.00
2019-05-19T02:40:04.935Z,0.00
2019-05-19T02:41:04.864Z,0.00
2019-05-19T02:42:59.969Z,0.00
2019-05-19T02:43:57.200Z,0.00
2019-05-19T02:44:57.124Z,0.00
2019-05-19T02:45:57.051Z,0.00
2019-05-19T02:46:56.969Z,0.00
2019-05-19T02:47:59.515Z,0.00
2019-05-19T02:49:54.315Z,0.00
2019-05-19T02:50:54.235Z,0.00
2019-05-19T02:51:54.500Z,0.00
2019-05-19T02:52:54.083Z,0.00
2019-05-19T02:53:54.007Z,0.00
2019-05-19T02:54:53.932Z,0.00
2019-05-19T02:55:53.869Z,0.00
2019-05-19T02:56:53.783Z,0.00
2019-05-19T02:57:53.703Z,0.00
2019-05-19T02:58:53.627Z,0.00
2019-05-19T02:59:53.555Z,0.00
2019-05-19T03:00:56.095Z,0.00
2019-05-19T03:01:53.400Z,0.00
2019-05-19T03:02:53.323Z,0.00
2019-05-19T03:03:53.244Z,0.00
2019-05-19T03:04:53.175Z,4.00
2019-05-19T03:05:53.130Z,4.00
2019-05-19T03:06:53.019Z,4.00
2019-05-19T03:07:52.940Z,4.00
2019-05-19T03:08:52.875Z,0.00
2019-05-19T03:09:52.788Z,4.00
2019-05-19T03:10:52.713Z,4.00
2019-05-19T03:11:52.637Z,8.00
2019-05-19T03:12:52.561Z,4.00
2019-05-19T03:13:52.491Z,8.00
2019-05-19T03:14:52.409Z,4.00
2019-05-19T03:15:52.332Z,8.00
2019-05-19T03:16:52.256Z,12.00
2019-05-19T03:17:52.183Z,8.00
2019-05-19T03:18:52.103Z,8.00
2019-05-19T03:19:52.029Z,12.00
2019-05-19T03:21:09.425Z,12.00
2019-05-19T03:21:51.881Z,16.00
2019-05-19T03:22:51.801Z,16.00
2019-05-19T03:23:51.723Z,16.00
2019-05-19T03:24:51.648Z,20.00
2019-05-19T03:25:51.572Z,20.00
2019-05-19T03:26:51.596Z,24.00
2019-05-19T03:27:51.429Z,24.00
2019-05-19T03:28:51.344Z,28.00
2019-05-19T03:29:51.271Z,32.00
2019-05-19T03:30:51.206Z,36.00
2019-05-19T03:31:51.222Z,36.00
2019-05-19T03:32:51.038Z,40.00
2019-05-19T03:33:50.974Z,44.00
2019-05-19T03:34:50.895Z,44.00
2019-05-19T03:35:50.810Z,48.00
2019-05-19T03:36:50.737Z,48.00
2019-05-19T03:37:50.658Z,48.00
2019-05-19T03:38:50.631Z,48.00
2019-05-19T03:39:50.506Z,52.00
2019-05-19T03:40:50.434Z,52.00
2019-05-19T03:41:50.356Z,56.00
2019-05-19T03:42:50.289Z,60.00
2019-05-19T03:43:50.203Z,60.00
2019-05-19T03:44:50.125Z,64.00
2019-05-19T03:45:50.050Z,68.00
2019-05-19T03:46:49.974Z,72.00
2019-05-19T03:47:49.898Z,72.00
2019-05-19T03:48:49.821Z,76.00
2019-05-19T03:49:49.749Z,76.00
2019-05-19T03:50:49.669Z,80.00
2019-05-19T03:51:49.595Z,80.00
2019-05-19T03:52:49.518Z,88.00
2019-05-19T03:53:49.542Z,84.00
2019-05-19T03:54:49.367Z,88.00
2019-05-19T03:55:49.291Z,88.00
2019-05-19T03:56:49.220Z,88.00
2019-05-19T03:57:49.138Z,88.00
2019-05-19T03:58:49.061Z,88.00
2019-05-19T03:59:48.988Z,88.00
2019-05-19T04:00:48.916Z,88.00
2019-05-19T04:01:48.835Z,88.00
2019-05-19T04:02:48.759Z,88.00
2019-05-19T04:03:48.684Z,92.00
2019-05-19T04:04:48.610Z,92.00
2019-05-19T04:05:48.533Z,96.00
2019-05-19T04:06:48.457Z,100.00
2019-05-19T04:07:48.379Z,104.00
2019-05-19T04:08:48.307Z,116.00
2019-05-19T04:09:48.227Z,124.00
2019-05-19T04:10:48.158Z,132.00
2019-05-19T04:11:48.074Z,140.00
2019-05-19T04:12:48.001Z,156.00
2019-05-19T04:13:47.926Z,164.00
2019-05-19T04:14:47.850Z,180.00
2019-05-19T04:15:47.772Z,196.00
2019-05-19T04:16:47.698Z,212.00
2019-05-19T04:17:47.625Z,228.00
2019-05-19T04:18:47.545Z,248.00
2019-05-19T04:19:47.469Z,264.00
2019-05-19T04:20:47.407Z,280.00
2019-05-19T04:21:49.364Z,288.00
2019-05-19T04:22:47.241Z,296.00
2019-05-19T04:23:47.170Z,304.00
2019-05-19T04:24:47.160Z,308.00
2019-05-19T04:25:47.017Z,308.00
2019-05-19T04:26:46.940Z,308.00
2019-05-19T04:27:46.864Z,316.00
2019-05-19T04:28:46.789Z,320.00
2019-05-19T04:29:46.712Z,328.00
2019-05-19T04:30:46.638Z,336.00
2019-05-19T04:31:46.561Z,348.00
2019-05-19T04:32:46.485Z,356.00
2019-05-19T04:33:46.410Z,368.00
2019-05-19T04:34:46.335Z,376.00
2019-05-19T04:35:46.258Z,392.00
2019-05-19T04:36:46.183Z,404.00
2019-05-19T04:37:46.108Z,416.00
2019-05-19T04:38:46.035Z,436.00
2019-05-19T04:39:45.955Z,448.00
2019-05-19T04:40:45.880Z,456.00
2019-05-19T04:41:45.808Z,476.00
2019-05-19T04:42:45.731Z,488.00
2019-05-19T04:43:45.659Z,500.00
2019-05-19T04:44:45.578Z,508.00
2019-05-19T04:45:45.506Z,528.00
2019-05-19T04:46:45.428Z,540.00
2019-05-19T04:47:45.350Z,560.00
2019-05-19T04:48:45.276Z,584.00
2019-05-19T04:49:45.200Z,608.00
2019-05-19T04:50:45.124Z,624.00
2019-05-19T04:51:45.091Z,648.00
2019-05-19T04:52:44.972Z,668.00
2019-05-19T04:53:44.897Z,680.00
2019-05-19T04:54:44.829Z,700.00
2019-05-19T04:55:44.821Z,708.00
2019-05-19T04:56:44.671Z,724.00
2019-05-19T04:57:44.597Z,740.00
2019-05-19T04:58:44.523Z,756.00
2019-05-19T04:59:44.444Z,772.00
2019-05-19T05:00:44.472Z,796.00
2019-05-19T05:01:44.293Z,820.00
2019-05-19T05:02:44.217Z,856.00
2019-05-19T05:03:44.141Z,896.00
2019-05-19T05:04:44.065Z,944.00
2019-05-19T05:05:43.995Z,1000.00
2019-05-19T05:06:43.919Z,1076.00
2019-05-19T05:07:43.857Z,1156.00
2019-05-19T05:08:43.765Z,1232.00
2019-05-19T05:09:43.691Z,1312.00
2019-05-19T05:10:43.614Z,1384.00
2019-05-19T05:11:43.537Z,1436.00
2019-05-19T05:12:43.464Z,1480.00
2019-05-19T05:13:43.387Z,1524.00
2019-05-19T05:14:43.312Z,1556.00
2019-05-19T05:15:43.237Z,1596.00
2019-05-19T05:16:43.165Z,1648.00
2019-05-19T05:17:43.086Z,1712.00
2019-05-19T05:18:43.010Z,1772.00
2019-05-19T05:19:42.933Z,1820.00
2019-05-19T05:20:42.859Z,1872.00
2019-05-19T05:21:42.784Z,1916.00
2019-05-19T05:22:42.709Z,1972.00
2019-05-19T05:23:42.634Z,2016.00
2019-05-19T05:24:42.587Z,2064.00
2019-05-19T05:25:42.487Z,2088.00
2019-05-19T05:26:42.412Z,2104.00
2019-05-19T05:27:42.334Z,2096.00
2019-05-19T05:28:42.258Z,2076.00
2019-05-19T05:29:42.182Z,2068.00
2019-05-19T05:30:42.109Z,2068.00
2019-05-19T05:31:42.032Z,2068.00
2019-05-19T05:32:41.959Z,2104.00
2019-05-19T05:33:41.910Z,2136.00
2019-05-19T05:34:41.806Z,2164.00
2019-05-19T05:35:41.732Z,2200.00
2019-05-19T05:36:41.657Z,2240.00
2019-05-19T05:37:41.581Z,2276.00
2019-05-19T05:38:41.507Z,2292.00
2019-05-19T05:39:41.431Z,2356.00
2019-05-19T05:40:41.355Z,2444.00
2019-05-19T05:41:41.282Z,2512.00
2019-05-19T05:42:41.208Z,2552.00
2019-05-19T05:43:41.130Z,2616.00
2019-05-19T05:44:41.054Z,2660.00
2019-05-19T05:45:40.979Z,2808.00
2019-05-19T05:46:40.912Z,2876.00
2019-05-19T05:47:40.832Z,2956.00
2019-05-19T05:48:40.756Z,3052.00
2019-05-19T05:49:40.685Z,3184.00
2019-05-19T05:50:40.604Z,3316.00
2019-05-19T05:51:40.530Z,3432.00
2019-05-19T05:52:40.455Z,3536.00
2019-05-19T05:53:40.381Z,3628.00
2019-05-19T05:54:40.305Z,3728.00
2019-05-19T05:55:40.230Z,3828.00
2019-05-19T05:56:40.153Z,3916.00
2019-05-19T05:57:40.081Z,3996.00
2019-05-19T05:58:40.006Z,4072.00
2019-05-19T05:59:39.930Z,4140.00
2019-05-19T06:00:39.859Z,4228.00
2019-05-19T06:01:39.782Z,4388.00
2019-05-19T06:02:39.710Z,4524.00
2019-05-19T06:03:39.632Z,4572.00
2019-05-19T06:04:39.557Z,4528.00
2019-05-19T06:05:39.483Z,4488.00
2019-05-19T06:06:39.409Z,4460.00
2019-05-19T06:07:39.334Z,4456.00
2019-05-19T06:08:39.265Z,4428.00
2019-05-19T06:09:39.186Z,4412.00
2019-05-19T06:10:39.111Z,4468.00
2019-05-19T06:11:39.065Z,4460.00
2019-05-19T06:12:38.962Z,4456.00
2019-05-19T06:13:38.891Z,4352.00
2019-05-19T06:14:38.815Z,4356.00
2019-05-19T06:15:38.741Z,4396.00
2019-05-19T06:16:38.667Z,4456.00
2019-05-19T06:17:38.598Z,4492.00
2019-05-19T06:18:38.520Z,4572.00
2019-05-19T06:19:38.446Z,4648.00
2019-05-19T06:20:38.374Z,4612.00
2019-05-19T06:21:38.306Z,4564.00
2019-05-19T06:22:54.378Z,4628.00
2019-05-19T06:23:38.152Z,4532.00
2019-05-19T06:24:38.080Z,4588.00
2019-05-19T06:25:38.054Z,4668.00
2019-05-19T06:26:37.933Z,4724.00
2019-05-19T06:27:37.958Z,4684.00
2019-05-19T06:28:37.785Z,4560.00
2019-05-19T06:29:37.712Z,4468.00
2019-05-19T06:30:37.641Z,4476.00
2019-05-19T06:31:37.564Z,4348.00
2019-05-19T06:32:37.494Z,4260.00
2019-05-19T06:33:37.518Z,4076.00
2019-05-19T06:34:37.345Z,3832.00
2019-05-19T06:35:37.276Z,3640.00
2019-05-19T06:36:37.200Z,3440.00
2019-05-19T06:37:37.125Z,3284.00
2019-05-19T06:38:37.057Z,3240.00
2019-05-19T06:39:36.980Z,3272.00
2019-05-19T06:40:36.905Z,2928.00
2019-05-19T06:41:36.830Z,2848.00
2019-05-19T06:42:36.760Z,2804.00
2019-05-19T06:43:36.683Z,2724.00
2019-05-19T06:44:36.612Z,2680.00
2019-05-19T06:45:36.570Z,2600.00
2019-05-19T06:46:36.464Z,2768.00
2019-05-19T06:47:36.395Z,2564.00
2019-05-19T06:48:36.317Z,2652.00
2019-05-19T06:49:36.242Z,3012.00
2019-05-19T06:50:40.234Z,3472.00
2019-05-19T06:51:36.096Z,3800.00
2019-05-19T06:52:36.024Z,4128.00
2019-05-19T06:53:35.952Z,4280.00
2019-05-19T06:54:35.878Z,4280.00
2019-05-19T06:55:35.804Z,4276.00
2019-05-19T06:56:35.780Z,4092.00
2019-05-19T06:57:35.658Z,4016.00
2019-05-19T06:58:35.584Z,3880.00
2019-05-19T06:59:35.513Z,3784.00
2019-05-19T07:00:35.436Z,3624.00
2019-05-19T07:01:35.362Z,3432.00
2019-05-19T07:02:35.289Z,3248.00
2019-05-19T07:03:35.215Z,3064.00
2019-05-19T07:04:35.142Z,2976.00
2019-05-19T07:05:35.071Z,3020.00
2019-05-19T07:06:34.997Z,2904.00
2019-05-19T07:07:34.923Z,2892.00
2019-05-19T07:08:34.862Z,2984.00
2019-05-19T07:09:34.785Z,3012.00
2019-05-19T07:10:34.804Z,3068.00
2019-05-19T07:11:34.637Z,2972.00
2019-05-19T07:12:34.558Z,2724.00
2019-05-19T07:13:34.489Z,2668.00
2019-05-19T07:14:34.411Z,2664.00
2019-05-19T07:15:34.340Z,2640.00
2019-05-19T07:16:34.264Z,2664.00
2019-05-19T07:17:34.215Z,2424.00
2019-05-19T07:18:34.127Z,2464.00
2019-05-19T07:19:34.047Z,2680.00
2019-05-19T07:20:33.976Z,2744.00
2019-05-19T07:21:33.902Z,2820.00
2019-05-19T07:22:37.437Z,2892.00
2019-05-19T07:23:33.758Z,2920.00
2019-05-19T07:24:33.682Z,3156.00
2019-05-19T07:25:33.616Z,3356.00
2019-05-19T07:26:33.535Z,3116.00
2019-05-19T07:27:33.462Z,3320.00
2019-05-19T07:28:33.390Z,3016.00
2019-05-19T07:29:33.316Z,2996.00
2019-05-19T07:30:33.245Z,2988.00
2019-05-19T07:31:33.170Z,2908.00
2019-05-19T07:32:33.101Z,3064.00
2019-05-19T07:33:33.029Z,3292.00
2019-05-19T07:34:32.966Z,3524.00
2019-05-19T07:35:32.905Z,3864.00
2019-05-19T07:36:32.806Z,3860.00
2019-05-19T07:37:32.741Z,3504.00
2019-05-19T07:38:32.660Z,3384.00
2019-05-19T07:39:32.591Z,3316.00
2019-05-19T07:40:32.514Z,3344.00
2019-05-19T07:41:32.442Z,3312.00
2019-05-19T07:42:32.369Z,3252.00
2019-05-19T07:43:32.306Z,3256.00
2019-05-19T07:44:32.223Z,3288.00
2019-05-19T07:45:32.151Z,3320.00
2019-05-19T07:46:32.081Z,3408.00
2019-05-19T07:47:32.006Z,3520.00
2019-05-19T07:48:31.933Z,3556.00
2019-05-19T07:49:31.861Z,3608.00
2019-05-19T07:50:31.791Z,3556.00
2019-05-19T07:51:31.714Z,3472.00
2019-05-19T07:52:31.649Z,3420.00
2019-05-19T07:53:42.605Z,3396.00
2019-05-19T07:54:31.500Z,3404.00
2019-05-19T07:55:31.425Z,3396.00
2019-05-19T07:56:31.353Z,3368.00
2019-05-19T07:57:31.284Z,3232.00
2019-05-19T07:58:31.207Z,3212.00
2019-05-19T07:59:31.134Z,3264.00
2019-05-19T08:00:31.150Z,3440.00
2019-05-19T08:01:30.990Z,3336.00
2019-05-19T08:02:30.923Z,3196.00
2019-05-19T08:03:30.845Z,3144.00
2019-05-19T08:04:30.808Z,3156.00
2019-05-19T08:05:30.701Z,3224.00
2019-05-19T08:06:30.728Z,3348.00
2019-05-19T08:07:30.554Z,3520.00
2019-05-19T08:08:30.483Z,3660.00
2019-05-19T08:09:30.411Z,3924.00
2019-05-19T08:10:30.337Z,4460.00
2019-05-19T08:11:30.266Z,4480.00
2019-05-19T08:12:30.246Z,4388.00
2019-05-19T08:13:30.122Z,4676.00
2019-05-19T08:14:30.057Z,4532.00
2019-05-19T08:15:29.977Z,4088.00
2019-05-19T08:16:29.909Z,3588.00
2019-05-19T08:17:29.893Z,3924.00
2019-05-19T08:18:29.763Z,3864.00
2019-05-19T08:19:29.688Z,3948.00
2019-05-19T08:20:29.618Z,3992.00
2019-05-19T08:21:29.545Z,3776.00
2019-05-19T08:22:29.472Z,4016.00
2019-05-19T08:23:29.447Z,3916.00
2019-05-19T08:24:29.328Z,3808.00
2019-05-19T08:25:29.262Z,3732.00
2019-05-19T08:26:29.184Z,3660.00
2019-05-19T08:27:29.110Z,3656.00
2019-05-19T08:28:29.037Z,3632.00
2019-05-19T08:29:28.970Z,3624.00
2019-05-19T08:30:29.002Z,3636.00
2019-05-19T08:31:28.848Z,3624.00
2019-05-19T08:32:28.750Z,3616.00
2019-05-19T08:33:28.773Z,3616.00
2019-05-19T08:34:28.604Z,3624.00
2019-05-19T08:35:28.533Z,3604.00
2019-05-19T08:36:28.461Z,3608.00
2019-05-19T08:37:28.389Z,3628.00
2019-05-19T08:38:28.318Z,3676.00
2019-05-19T08:39:28.243Z,3756.00
2019-05-19T08:40:28.173Z,3852.00
2019-05-19T08:41:28.103Z,3892.00
2019-05-19T08:42:28.122Z,3948.00
2019-05-19T08:43:27.958Z,4012.00
2019-05-19T08:44:27.886Z,4116.00
2019-05-19T08:45:27.865Z,4212.00
2019-05-19T08:46:27.743Z,4312.00
2019-05-19T08:47:27.669Z,4408.00
2019-05-19T08:48:27.603Z,4432.00
2019-05-19T08:49:27.537Z,4500.00
2019-05-19T08:50:27.453Z,4564.00
2019-05-19T08:51:27.380Z,4628.00
2019-05-19T08:52:27.311Z,4652.00
2019-05-19T08:53:27.236Z,4676.00
2019-05-19T08:54:27.166Z,4712.00
2019-05-19T08:55:27.092Z,4800.00
2019-05-19T08:56:27.020Z,4836.00
2019-05-19T08:57:26.949Z,4892.00
2019-05-19T08:58:26.879Z,4992.00
2019-05-19T08:59:26.805Z,5100.00
2019-05-19T09:00:26.735Z,5224.00
2019-05-19T09:01:26.662Z,5304.00
2019-05-19T09:02:26.591Z,5404.00
2019-05-19T09:03:26.523Z,5536.00
2019-05-19T09:04:26.448Z,5616.00
2019-05-19T09:05:26.375Z,5776.00
2019-05-19T09:06:26.304Z,5884.00
2019-05-19T09:07:26.234Z,5984.00
2019-05-19T09:08:26.161Z,6068.00
2019-05-19T09:09:26.096Z,6120.00
2019-05-19T09:10:26.069Z,6112.00
2019-05-19T09:11:25.947Z,6172.00
2019-05-19T09:12:25.875Z,6228.00
2019-05-19T09:13:25.803Z,6292.00
2019-05-19T09:14:25.739Z,6224.00
2019-05-19T09:15:25.661Z,6228.00
2019-05-19T09:16:25.591Z,6132.00
2019-05-19T09:17:25.518Z,6116.00
2019-05-19T09:18:25.447Z,6060.00
2019-05-19T09:19:25.374Z,6080.00
2019-05-19T09:20:25.311Z,6052.00
2019-05-19T09:21:25.285Z,6144.00
2019-05-19T09:22:25.162Z,6176.00
2019-05-19T09:23:25.090Z,6252.00
2019-05-19T09:24:30.491Z,6348.00
2019-05-19T09:25:24.947Z,6468.00
2019-05-19T09:26:24.878Z,6604.00
2019-05-19T09:27:24.804Z,6756.00
2019-05-19T09:28:24.731Z,6944.00
2019-05-19T09:29:24.661Z,7076.00
2019-05-19T09:30:24.590Z,7244.00
2019-05-19T09:31:24.524Z,7400.00
2019-05-19T09:32:24.447Z,7548.00
2019-05-19T09:33:24.376Z,7640.00
2019-05-19T09:34:24.308Z,7748.00
2019-05-19T09:35:24.237Z,7748.00
2019-05-19T09:36:24.175Z,7852.00
2019-05-19T09:37:24.093Z,7916.00
2019-05-19T09:38:24.021Z,8000.00
2019-05-19T09:39:23.949Z,8132.00
2019-05-19T09:40:26.635Z,8276.00
2019-05-19T09:41:23.810Z,8412.00
2019-05-19T09:42:23.740Z,8576.00
2019-05-19T09:43:23.666Z,8748.00
2019-05-19T09:44:23.595Z,8892.00
2019-05-19T09:45:23.524Z,8984.00
2019-05-19T09:46:23.455Z,9096.00
2019-05-19T09:47:23.383Z,9224.00
2019-05-19T09:48:23.314Z,9396.00
2019-05-19T09:49:23.244Z,9480.00
2019-05-19T09:50:23.172Z,9568.00
2019-05-19T09:51:23.100Z,9636.00
2019-05-19T09:52:23.031Z,9828.00
2019-05-19T09:53:22.961Z,9916.00
2019-05-19T09:54:22.891Z,10020.00
2019-05-19T09:55:22.899Z,10084.00
2019-05-19T09:56:22.754Z,10132.00
2019-05-19T09:57:22.678Z,10248.00
2019-05-19T09:58:22.612Z,10324.00
2019-05-19T09:59:22.539Z,10200.00
2019-05-19T10:00:22.518Z,10308.00
2019-05-19T10:01:22.398Z,10368.00
2019-05-19T10:02:22.327Z,10416.00
2019-05-19T10:03:22.256Z,10512.00
2019-05-19T10:04:22.187Z,10604.00
2019-05-19T10:05:22.114Z,10724.00
2019-05-19T10:06:22.045Z,10824.00
2019-05-19T10:07:21.974Z,10872.00
2019-05-19T10:08:21.904Z,10964.00
2019-05-19T10:09:21.835Z,10968.00
2019-05-19T10:10:21.766Z,11052.00
2019-05-19T10:11:21.705Z,11076.00
2019-05-19T10:12:21.723Z,11136.00
2019-05-19T10:13:21.554Z,11028.00
2019-05-19T10:14:21.489Z,11068.00
2019-05-19T10:15:21.413Z,11068.00
2019-05-19T10:16:21.343Z,11092.00
2019-05-19T10:17:21.274Z,11108.00
2019-05-19T10:18:21.205Z,11036.00
2019-05-19T10:19:21.132Z,10996.00
2019-05-19T10:20:21.064Z,10964.00
2019-05-19T10:21:20.996Z,11012.00
2019-05-19T10:22:20.925Z,11068.00
2019-05-19T10:23:20.855Z,11160.00
2019-05-19T10:24:20.787Z,11240.00
2019-05-19T10:25:22.498Z,11344.00
2019-05-19T10:26:20.645Z,11368.00
2019-05-19T10:27:21.766Z,11440.00
2019-05-19T10:28:20.505Z,11548.00
2019-05-19T10:29:20.436Z,11640.00
2019-05-19T10:30:20.366Z,11760.00
2019-05-19T10:31:20.296Z,11868.00
2019-05-19T10:32:20.226Z,12012.00
2019-05-19T10:33:20.156Z,12192.00
2019-05-19T10:34:20.087Z,12408.00
2019-05-19T10:35:20.017Z,12516.00
2019-05-19T10:36:19.948Z,12648.00
2019-05-19T10:37:19.878Z,12772.00
2019-05-19T10:38:19.808Z,12908.00
2019-05-19T10:39:19.738Z,13024.00
2019-05-19T10:40:19.667Z,13108.00
2019-05-19T10:41:19.599Z,13164.00
2019-05-19T10:42:19.530Z,13240.00
2019-05-19T10:43:19.459Z,13236.00
2019-05-19T10:44:19.396Z,13292.00
2019-05-19T10:45:19.321Z,13312.00
2019-05-19T10:46:19.254Z,13244.00
2019-05-19T10:47:19.182Z,13140.00
2019-05-19T10:48:19.113Z,13040.00
2019-05-19T10:49:19.043Z,12956.00
2019-05-19T10:50:18.975Z,12868.00
2019-05-19T10:51:18.906Z,12844.00
2019-05-19T10:52:18.852Z,12720.00
2019-05-19T10:53:18.767Z,12684.00
2019-05-19T10:54:18.734Z,12644.00
2019-05-19T10:55:18.628Z,12596.00
2019-05-19T10:56:19.196Z,12628.00
2019-05-19T10:57:18.489Z,12680.00
2019-05-19T10:58:18.450Z,12860.00
2019-05-19T10:59:18.350Z,13116.00
2019-05-19T11:00:18.338Z,13300.00
2019-05-19T11:01:18.212Z,13668.00
2019-05-19T11:02:18.144Z,14124.00
2019-05-19T11:03:18.075Z,14156.00
2019-05-19T11:04:18.007Z,14896.00
2019-05-19T11:05:17.941Z,17472.00
2019-05-19T11:06:17.867Z,17440.00
2019-05-19T11:07:17.803Z,16480.00
2019-05-19T11:08:17.730Z,16192.00
2019-05-19T11:09:17.663Z,15020.00
2019-05-19T11:10:17.591Z,15396.00
2019-05-19T11:11:17.522Z,16800.00
2019-05-19T11:14:53.125Z,16256.00
2019-05-19T11:15:53.054Z,17216.00
2019-05-19T11:16:52.985Z,17120.00
2019-05-19T11:17:52.917Z,17696.00
2019-05-19T11:18:52.845Z,18464.00
2019-05-19T11:19:52.827Z,18688.00
2019-05-19T11:20:52.705Z,19872.00
2019-05-19T11:21:52.635Z,20160.00
2019-05-19T11:22:52.565Z,21760.00
2019-05-19T11:23:52.496Z,23680.00
2019-05-19T11:24:52.473Z,21760.00
2019-05-19T11:25:52.361Z,22400.00
2019-05-19T11:26:52.287Z,23904.00
2019-05-19T11:27:52.218Z,25760.00
2019-05-19T11:28:52.148Z,23232.00
2019-05-19T11:29:52.087Z,23264.00
2019-05-19T11:30:52.008Z,22432.00
2019-05-19T11:31:51.940Z,23328.00
2019-05-19T11:32:51.870Z,32544.00
2019-05-19T11:33:51.800Z,39136.00
2019-05-19T11:35:51.659Z,36640.00
2019-05-19T11:36:51.592Z,36288.00
2019-05-19T11:37:51.522Z,41888.00
2019-05-19T11:38:51.451Z,47488.00
2019-05-19T11:39:51.384Z,50432.00
2019-05-19T11:40:51.315Z,46976.00
2019-05-19T11:41:51.248Z,37664.00
2019-05-19T11:42:51.180Z,34528.00
2019-05-19T11:43:51.212Z,31776.00
2019-05-19T11:44:51.045Z,45568.00
2019-05-19T11:45:50.979Z,43136.00
2019-05-19T11:46:50.911Z,41120.00
2019-05-19T11:47:50.859Z,35904.00
2019-05-19T11:48:50.781Z,33920.00
2019-05-19T11:49:50.725Z,29600.00
2019-05-19T11:50:50.643Z,30944.00
2019-05-19T11:51:50.583Z,35232.00
2019-05-19T11:52:50.511Z,33792.00
2019-05-19T11:53:50.446Z,35296.00
2019-05-19T11:54:50.381Z,50048.00
2019-05-19T11:55:50.315Z,60352.00
2019-05-19T11:56:50.267Z,76512.00
2019-05-19T11:57:51.493Z,79424.00
2019-05-19T11:58:52.763Z,73056.00
2019-05-19T11:59:52.667Z,68000.00
2019-05-19T12:00:53.413Z,75328.00
2019-05-19T12:03:49.785Z,84736.00
2019-05-19T12:04:49.721Z,89568.00
2019-05-19T12:05:49.656Z,95008.00
2019-05-19T12:06:49.591Z,97792.00
2019-05-19T12:07:49.534Z,103456.00
2019-05-19T12:09:31.963Z,103616.00
2019-05-19T12:10:31.901Z,104704.00
2019-05-19T12:11:31.832Z,104192.00
2019-05-19T12:12:31.769Z,102624.00
2019-05-19T12:13:34.805Z,99232.00
2019-05-19T12:19:32.268Z,100992.00
2019-05-19T12:20:32.204Z,102400.00
2019-05-19T12:23:49.610Z,112928.00
2019-05-19T12:24:49.551Z,113632.00
2019-05-19T12:25:49.491Z,105504.00
2019-05-19T12:28:58.446Z,104160.00
2019-05-19T12:29:57.376Z,104480.00
2019-05-19T12:30:57.319Z,108192.00
2019-05-19T12:32:59.295Z,109024.00
2019-05-19T12:33:57.173Z,107264.00
2019-05-19T12:34:57.081Z,106624.00
2019-05-19T12:35:57.022Z,109696.00
2019-05-19T12:36:56.971Z,109408.00
2019-05-19T12:37:56.903Z,106784.00
2019-05-19T12:39:56.786Z,105088.00
2019-05-19T12:40:56.725Z,105248.00
2019-05-19T12:41:56.667Z,97376.00
2019-05-19T12:42:56.609Z,92480.00